Lancaster, Pennsylvania
Current Conditions -  °F | °C
As of 2:53 PM on Sunday 23 Nov 2014 (Local Time) from KLNS Reporting Station
Clear Clear  
Wind Chill: 53°   Ceiling: Unl
Heat Index: 53°   Visibility: 10mi
Dew Point: 25°   Wind: 10mph
Humidity: 34%   Direction: 160°SSE
Pressure: 30.1"   Gusts: NA
Location:  40.04°N, 76.3°W
Report Text: KLNS 231953Z 16009KT 10SM CLR 12/M04 A3010 RMK AO2 SLP194 T01171039
Loading
Personal Weather Stations






























Interactive Weather Map New forecast layout! Learn more

10-Day Weather Forecast

Advertisements
Track Severe Weather on mobile